CheckWX is a tool to help pilots better visualize weather data.  It is not intended as a substitute for an official pre-flight weather briefing.

18:45:27 UTC

KOFF TAF
Offutt AFB Airport
Omaha, Nebraska, USA
TAF KOFF 171800Z 1718/1824 16012G18KT 9999 FEW250 QNH2993INS BECMG 1722/1723 12009KT 9999 FEW250 QNH2987INS BECMG 1810/1811 12009KT 9999 FEW020 FEW250 WS020/19055KT QNH2985INS BECMG 1815/1816 16020G25KT 9999 SKC 530044 QNH2982INS BECMG 1821/1822 19012KT 9999 FEW040 510053 QNH2970INS TX21/1721Z TN10/1810Z

Oct-17@
18:00 UTC

Oct-17 @ 18:00 UTC

Oct-17@
22:00 UTC

Oct-17 @ 22:00 UTC

TAF KOFF 171800Z 1718/1824 16012G18KT 9999 FEW250 QNH2993INS
Wind
  • 160° at 12 KTS
  • {Gusting to 18 KTS
Cloud Levels
  • Few at 25,000' AGL

Oct-17@
22:00 UTC

Oct-17 @ 22:00 UTC

Oct-18@
10:00 UTC

Oct-18 @ 10:00 UTC

BECMG 1722/1723 12009KT 9999 FEW250 QNH2987INS

Becoming

Becoming Conditions expected by Thu, Oct 17, 2019 @ 23:00 UTC

Wind
  • 120° at 9 KTS
Cloud Levels
  • Few at 25,000' AGL

Oct-18@
10:00 UTC

Oct-18 @ 10:00 UTC

Oct-18@
15:00 UTC

Oct-18 @ 15:00 UTC

BECMG 1810/1811 12009KT 9999 FEW020 FEW250 WS020/19055KT QNH2985INS

Becoming

Becoming Conditions expected by Fri, Oct 18, 2019 @ 11:00 UTC

Wind
  • 120° at 9 KTS
Cloud Levels
  • Few at 2,000' AGL
  • Few at 25,000' AGL

Oct-18@
15:00 UTC

Oct-18 @ 15:00 UTC

Oct-18@
21:00 UTC

Oct-18 @ 21:00 UTC

BECMG 1815/1816 16020G25KT 9999 SKC 530044 QNH2982INS

Becoming

Becoming Conditions expected by Fri, Oct 18, 2019 @ 16:00 UTC

Wind
  • 160° at 20 KTS
  • {Gusting to 25 KTS
Cloud Levels
  • Clear skies
Turbulence
< Frequent moderate clear air turbulence expected at 400' AGL extending to 4,400' AGL

Oct-18@
21:00 UTC

Oct-18 @ 21:00 UTC

Oct-19@
00:00 UTC

Oct-19 @ 00:00 UTC

BECMG 1821/1822 19012KT 9999 FEW040 510053 QNH2970INS TX21/1721Z TN10/1810Z

Becoming

Becoming Conditions expected by Fri, Oct 18, 2019 @ 22:00 UTC

Wind
  • 190° at 12 KTS
Cloud Levels
  • Few at 4,000' AGL
Turbulence
< Light turbulence expected at 500' AGL extending to 3,500' AGL